Terminal Aerodrome Forecast
Issued by NWS Cleveland, OH

Home | Current Version | Previous Version | Graphics & Text | Print | Product List | Glossary Off
Versions: 1 2 3 4 5 6 7 8 9 10 11 12 13 14 15

000
FTUS41 KCLE 301129
TAFCAK
TAF
KCAK 301129Z 3012/3112 25004KT P6SM SCT030
      TEMPO 3014/3016 BKN030
     FM301600 31008KT P6SM BKN050
     FM302300 34004KT P6SM SCT250=

USA.gov is the U.S. government's official web portal to all federal, state and local government web resources and services.